Time;durP1;ratioP1;P1;durP2;ratioP2;P2;SDS_P1;SDS_P2;PMS_P1;PMS_P2;Temp;Humidity;BMP_temperature;BMP_pressure;BME280_temperature;BME280_humidity;BME280_pressure;Samples;Min_cycle;Max_cycle;Signal;HPM_P1;HPM_P2
2021/06/27 00:00:17;;;;;;;;;31.25;29.75;;;;;22.66;58.63;100832.78;5064062;27;45499;-57
2021/06/27 00:02:43;;;;;;;;;62.25;49.25;;;;;22.67;58.18;100833.66;5074708;28;45702;-56
2021/06/27 00:05:11;;;;;;;;;79.25;70.00;;;;;22.67;58.57;100833.66;5080149;28;47128;-56
2021/06/27 00:07:38;;;;;;;;;41.50;35.50;;;;;22.66;58.67;100832.78;5079540;28;45948;-56
2021/06/27 00:10:07;;;;;;;;;54.25;45.25;;;;;22.66;58.77;100843.59;5073571;27;45443;-56
2021/06/27 00:12:34;;;;;;;;;49.25;40.00;;;;;22.67;58.42;100852.59;5070820;28;45393;-56
2021/06/27 00:15:00;;;;;;;;;41.00;34.75;;;;;22.66;58.15;100851.72;5072015;28;47254;-57
2021/06/27 00:17:26;;;;;;;;;18.75;18.75;;;;;22.66;58.64;100858.97;5065543;28;45605;-56
2021/06/27 00:19:51;;;;;;;;;19.75;18.75;;;;;22.64;58.39;100844.69;5067854;28;45589;-56
2021/06/27 00:22:17;;;;;;;;;29.50;26.50;;;;;22.63;59.05;100848.38;5078717;28;45561;-55
2021/06/27 00:24:44;;;;;;;;;23.50;22.00;;;;;22.61;58.53;100852.06;5080920;27;48130;-55
2021/06/27 00:27:09;;;;;;;;;20.75;18.25;;;;;22.61;58.57;100854.75;5081035;27;45415;-56
2021/06/27 00:29:35;;;;;;;;;19.75;19.75;;;;;22.61;58.68;100852.06;5081350;27;45383;-56
2021/06/27 00:32:00;;;;;;;;;20.75;17.75;;;;;22.62;58.53;100855.63;5081522;27;45648;-56
2021/06/27 00:34:26;;;;;;;;;19.25;19.25;;;;;22.60;58.75;100860.25;5081305;27;48231;-56
2021/06/27 00:36:52;;;;;;;;;18.00;18.00;;;;;22.59;59.13;100862.09;5078573;27;45349;-59
2021/06/27 00:39:17;;;;;;;;;22.50;22.00;;;;;22.58;59.24;100867.59;5096257;27;45444;-56
2021/06/27 00:41:43;;;;;;;;;23.00;19.50;;;;;22.57;59.46;100868.56;5080965;27;45605;-56
2021/06/27 00:44:08;;;;;;;;;22.00;22.00;;;;;22.54;59.88;100866.97;5078801;28;45292;-56
2021/06/27 00:46:34;;;;;;;;;18.25;17.75;;;;;22.48;59.55;100866.50;5084159;27;45663;-56
2021/06/27 00:48:59;;;;;;;;;23.50;20.00;;;;;22.46;59.86;100868.44;5063735;27;45355;-56
2021/06/27 00:51:25;;;;;;;;;20.00;18.75;;;;;22.42;60.08;100867.81;5079644;28;45953;-57
2021/06/27 00:53:50;;;;;;;;;22.75;20.50;;;;;22.40;60.56;100869.75;5077602;27;47145;-54
2021/06/27 00:56:16;;;;;;;;;18.75;18.25;;;;;22.39;60.36;100865.31;5075857;28;45252;-57
2021/06/27 00:58:43;;;;;;;;;19.50;19.25;;;;;22.38;60.87;100870.84;5060684;28;45387;-56
2021/06/27 01:01:09;;;;;;;;;20.25;20.00;;;;;22.36;60.80;100870.03;5060264;27;45384;-56
2021/06/27 01:03:36;;;;;;;;;19.75;19.75;;;;;22.33;61.29;100866.59;5071028;28;47043;-55
2021/06/27 01:06:02;;;;;;;;;20.00;19.25;;;;;22.30;61.48;100852.41;5069826;27;45361;-57
2021/06/27 01:08:27;;;;;;;;;20.00;17.50;;;;;22.31;61.77;100864.97;5068378;28;45404;-54
2021/06/27 01:10:53;;;;;;;;;19.25;18.50;;;;;22.32;61.66;100859.44;5070810;28;45607;-54
2021/06/27 01:13:21;;;;;;;;;18.00;18.00;;;;;22.32;61.31;100851.34;5061189;28;45544;-55
2021/06/27 01:15:51;;;;;;;;;19.25;19.25;;;;;22.34;61.59;100829.59;5060356;28;45378;-56
2021/06/27 01:18:16;;;;;;;;;21.00;19.75;;;;;22.34;60.97;100805.25;5074465;27;45710;-54
2021/06/27 01:20:42;;;;;;;;;19.75;19.75;;;;;22.36;61.62;100797.94;5094020;27;45435;-55
2021/06/27 01:23:14;;;;;;;;;17.25;15.00;;;;;22.37;61.51;100801.50;5074230;28;47399;-54
2021/06/27 01:25:42;;;;;;;;;18.50;18.50;;;;;22.36;61.85;100806.06;5060214;28;45328;-56
2021/06/27 01:28:09;;;;;;;;;19.00;19.00;;;;;22.37;61.55;100809.63;5099235;27;45629;-58
2021/06/27 01:30:36;;;;;;;;;24.00;21.75;;;;;22.35;62.21;100815.09;5067748;27;45581;-54
2021/06/27 01:33:07;;;;;;;;;18.25;18.25;;;;;22.33;61.31;100825.16;5067654;28;48266;-55
2021/06/27 01:35:33;;;;;;;;;20.00;19.25;;;;;22.31;61.58;100832.50;5066664;28;45275;-55
2021/06/27 01:38:01;;;;;;;;;22.75;22.00;;;;;22.28;61.80;100840.84;5078652;27;45485;-55
2021/06/27 01:40:28;;;;;;;;;21.25;21.25;;;;;22.20;62.10;100827.84;5063545;27;45530;-54
2021/06/27 01:43:18;;;;;;;;;18.75;18.75;;;;;22.17;62.28;100803.72;5075157;27;47300;-55
2021/06/27 01:45:46;;;;;;;;;18.50;17.00;;;;;22.16;62.28;100802.00;5073449;27;45381;-56
2021/06/27 01:48:14;;;;;;;;;19.50;19.00;;;;;22.17;62.33;100803.72;5067028;27;45451;-54
2021/06/27 01:50:42;;;;;;;;;25.75;23.50;;;;;22.16;62.64;100811.94;5065636;28;45697;-54
2021/06/27 01:53:10;;;;;;;;;21.00;20.75;;;;;22.16;62.38;100811.94;5067766;27;48295;-56
2021/06/27 01:55:36;;;;;;;;;24.25;24.00;;;;;22.13;62.09;100798.66;5060482;28;46501;-55
2021/06/27 01:58:02;;;;;;;;;22.50;20.50;;;;;22.07;62.60;100788.25;5073589;28;45412;-55
2021/06/27 02:00:30;;;;;;;;;20.25;19.50;;;;;22.04;63.00;100787.47;5077263;27;45400;-54
2021/06/27 02:02:56;;;;;;;;;24.50;22.75;;;;;22.03;63.28;100787.56;5067778;28;48190;-54
2021/06/27 02:05:22;;;;;;;;;22.25;21.25;;;;;21.98;63.24;100789.72;5059501;28;45672;-54
2021/06/27 02:07:48;;;;;;;;;22.25;21.00;;;;;21.92;62.65;100793.69;5059498;28;45404;-54
2021/06/27 02:10:18;;;;;;;;;23.50;20.00;;;;;21.90;63.52;100792.94;5068754;27;45408;-54
2021/06/27 02:12:44;;;;;;;;;24.00;22.50;;;;;21.85;63.52;100780.69;5063850;28;46145;-52
2021/06/27 02:15:11;;;;;;;;;22.50;20.75;;;;;21.79;64.08;100773.00;5077489;27;45530;-53
2021/06/27 02:17:37;;;;;;;;;20.25;20.25;;;;;21.80;63.75;100759.41;5064868;28;45424;-53
2021/06/27 02:20:05;;;;;;;;;21.25;19.75;;;;;21.83;63.24;100771.81;5092842;27;45618;-54
2021/06/27 02:22:31;;;;;;;;;22.75;20.75;;;;;21.84;63.56;100760.91;5066947;28;48763;-54
2021/06/27 02:24:56;;;;;;;;;24.25;20.75;;;;;21.88;63.34;100750.78;5060577;28;45488;-53
2021/06/27 02:27:22;;;;;;;;;20.25;20.25;;;;;21.91;63.16;100745.16;5075002;27;45788;-53
2021/06/27 02:29:47;;;;;;;;;19.50;17.25;;;;;21.94;63.79;100734.13;5059682;28;45475;-56
2021/06/27 02:32:13;;;;;;;;;19.25;18.75;;;;;21.97;63.63;100731.22;5059671;28;47352;-51
2021/06/27 02:34:38;;;;;;;;;20.50;19.25;;;;;22.00;62.95;100734.59;5059987;28;46061;-54
2021/06/27 02:37:04;;;;;;;;;18.00;17.50;;;;;22.00;63.10;100723.78;5070233;27;45313;-55
2021/06/27 02:39:29;;;;;;;;;18.75;18.25;;;;;22.02;63.08;100716.44;5092543;27;45913;-54
2021/06/27 02:41:55;;;;;;;;;22.75;17.25;;;;;22.03;63.42;100712.75;5073119;27;47322;-54
2021/06/27 02:44:20;;;;;;;;;19.50;18.00;;;;;22.05;62.98;100715.34;5059197;28;45733;-57
2021/06/27 02:46:46;;;;;;;;;20.75;19.75;;;;;22.09;62.58;100694.41;5062240;27;45424;-54
2021/06/27 02:49:12;;;;;;;;;18.50;18.50;;;;;22.08;62.45;100704.34;5069904;27;45767;-54
2021/06/27 02:51:37;;;;;;;;;20.75;19.75;;;;;22.07;62.54;100694.50;5063931;28;48394;-54
2021/06/27 02:54:03;;;;;;;;;17.50;17.00;;;;;22.06;62.43;100697.34;5075920;27;46069;-53
2021/06/27 02:56:29;;;;;;;;;17.50;17.25;;;;;22.04;62.84;100684.75;5058816;28;45373;-51
2021/06/27 02:58:54;;;;;;;;;16.50;16.50;;;;;22.06;62.72;100687.38;5073611;27;45680;-54
2021/06/27 03:01:20;;;;;;;;;18.00;17.00;;;;;22.06;62.60;100687.38;5061141;28;47201;-55
2021/06/27 03:03:51;;;;;;;;;19.50;18.50;;;;;22.06;62.67;100690.09;5064438;28;45421;-55
2021/06/27 03:06:17;;;;;;;;;18.50;17.00;;;;;22.04;62.99;100687.47;5068391;28;45361;-56
2021/06/27 03:08:43;;;;;;;;;18.50;18.25;;;;;22.01;62.51;100687.69;5070812;28;45465;-55
2021/06/27 03:11:09;;;;;;;;;18.75;18.75;;;;;21.99;62.85;100683.38;5062872;27;47164;-55
2021/06/27 03:13:41;;;;;;;;;17.00;17.00;;;;;21.96;62.58;100680.84;5074261;28;45523;-55
2021/06/27 03:16:07;;;;;;;;;17.25;16.50;;;;;21.91;63.23;100678.47;5065855;28;45472;-55
2021/06/27 03:18:34;;;;;;;;;19.50;19.25;;;;;21.86;62.88;100675.25;5086612;27;45586;-54
2021/06/27 03:20:59;;;;;;;;;18.25;18.25;;;;;21.83;62.98;100688.06;5064319;28;47513;-53
2021/06/27 03:23:26;;;;;;;;;16.50;16.50;;;;;21.81;63.10;100690.88;5080964;27;46179;-55
2021/06/27 03:25:55;;;;;;;;;19.00;19.00;;;;;21.77;63.13;100685.81;5076062;27;45613;-57
2021/06/27 03:28:21;;;;;;;;;16.00;15.75;;;;;21.75;63.36;100683.22;5068871;27;45894;-56
2021/06/27 03:30:47;;;;;;;;;19.25;18.75;;;;;21.71;63.21;100682.53;5058258;28;48462;-56
2021/06/27 03:33:12;;;;;;;;;20.00;17.75;;;;;21.70;63.70;100680.81;5065281;27;45781;-57
2021/06/27 03:35:38;;;;;;;;;18.75;17.75;;;;;21.69;63.47;100683.63;5066097;28;45470;-56
2021/06/27 03:38:11;;;;;;;;;17.75;16.50;;;;;21.65;63.48;100685.69;5061021;28;46802;-55
2021/06/27 03:40:37;;;;;;;;;18.00;18.00;;;;;21.62;63.75;100690.44;5075186;28;46798;-56
2021/06/27 03:43:03;;;;;;;;;25.00;22.00;;;;;21.61;63.95;100686.00;5066236;27;45517;-56
2021/06/27 03:45:29;;;;;;;;;20.25;18.00;;;;;21.61;63.60;100680.59;5061377;28;46753;-56
2021/06/27 03:47:55;;;;;;;;;19.75;19.25;;;;;21.63;64.05;100665.16;5063981;27;45716;-56
2021/06/27 03:50:21;;;;;;;;;25.75;22.75;;;;;21.65;63.54;100655.09;5058009;28;47410;-55
2021/06/27 03:52:47;;;;;;;;;18.25;18.25;;;;;21.68;63.49;100666.56;5065198;28;45406;-54
2021/06/27 03:55:14;;;;;;;;;20.00;20.00;;;;;21.69;63.61;100670.97;5058906;28;45345;-54
2021/06/27 03:57:39;;;;;;;;;19.00;19.00;;;;;21.73;63.73;100682.47;5062949;28;45368;-55
2021/06/27 04:00:08;;;;;;;;;21.75;20.75;;;;;21.72;63.75;100687.00;5072432;28;47616;-54
2021/06/27 04:02:33;;;;;;;;;19.00;19.00;;;;;21.71;63.88;100697.88;5065662;28;45363;-54
2021/06/27 04:04:59;;;;;;;;;19.50;19.25;;;;;21.70;63.35;100697.03;5064322;28;45424;-56
2021/06/27 04:07:24;;;;;;;;;19.50;19.25;;;;;21.68;63.93;100701.66;5059433;27;45436;-52
2021/06/27 04:09:50;;;;;;;;;21.00;19.25;;;;;21.67;63.41;100702.63;5062503;27;45589;-56
2021/06/27 04:12:15;;;;;;;;;17.00;16.75;;;;;21.66;63.49;100700.91;5076028;27;45436;-55
2021/06/27 04:14:41;;;;;;;;;18.75;18.00;;;;;21.63;63.53;100701.13;5087178;27;45518;-55
2021/06/27 04:17:06;;;;;;;;;18.25;16.25;;;;;21.61;63.60;100694.97;5063864;28;45520;-53
2021/06/27 04:19:32;;;;;;;;;16.75;16.75;;;;;21.57;64.02;100693.44;5058090;28;47207;-57
2021/06/27 04:21:57;;;;;;;;;21.00;18.75;;;;;21.54;63.57;100690.94;5063646;28;45463;-54
2021/06/27 04:24:23;;;;;;;;;22.75;17.75;;;;;21.54;63.90;100687.38;5066007;28;45441;-55
2021/06/27 04:26:48;;;;;;;;;21.50;19.00;;;;;21.53;63.86;100683.81;5058100;28;45718;-54
2021/06/27 04:29:16;;;;;;;;;21.25;19.00;;;;;21.53;63.98;100683.81;5057833;28;47272;-55
2021/06/27 04:31:41;;;;;;;;;22.25;21.25;;;;;21.48;64.43;100683.28;5065492;28;45870;-55
2021/06/27 04:34:07;;;;;;;;;19.50;19.50;;;;;21.47;64.10;100681.53;5072139;27;45546;-55
2021/06/27 04:36:33;;;;;;;;;19.25;18.75;;;;;21.49;64.47;100679.59;5072911;28;45554;-54
2021/06/27 04:38:58;;;;;;;;;20.50;18.75;;;;;21.53;64.12;100672.16;5064052;28;47339;-54
2021/06/27 04:41:24;;;;;;;;;20.00;20.00;;;;;21.56;64.21;100678.19;5068677;28;45747;-54
2021/06/27 04:43:49;;;;;;;;;18.25;17.00;;;;;21.58;63.92;100684.34;5061061;28;45245;-53
2021/06/27 04:46:17;;;;;;;;;20.75;19.75;;;;;21.58;64.05;100686.19;5072414;27;45400;-54
2021/06/27 04:48:42;;;;;;;;;19.50;15.75;;;;;21.56;64.28;100677.34;5067749;27;47452;-54
2021/06/27 04:51:08;;;;;;;;;17.00;17.00;;;;;21.57;63.96;100679.06;5065215;28;45772;-53
2021/06/27 04:53:33;;;;;;;;;18.00;17.75;;;;;21.59;63.34;100677.97;5060877;28;45646;-52
2021/06/27 04:55:59;;;;;;;;;17.25;17.00;;;;;21.60;63.57;100678.88;5070249;27;45687;-55
2021/06/27 04:58:25;;;;;;;;;20.50;19.00;;;;;21.62;63.46;100685.03;5077535;28;47747;-54
2021/06/27 05:00:51;;;;;;;;;19.25;19.25;;;;;21.62;63.88;100687.72;5075162;27;45400;-53
2021/06/27 05:03:16;;;;;;;;;18.00;17.50;;;;;21.59;63.88;100691.47;5077876;27;45558;-53
2021/06/27 05:05:42;;;;;;;;;18.75;17.75;;;;;21.62;64.20;100680.50;5075606;27;45781;-54
2021/06/27 05:08:08;;;;;;;;;21.25;20.25;;;;;21.67;63.88;100689.13;5069336;28;46652;-54
2021/06/27 05:10:34;;;;;;;;;19.75;19.00;;;;;21.72;63.99;100688.81;5078068;28;45990;-53
2021/06/27 05:12:59;;;;;;;;;21.75;21.75;;;;;21.73;63.38;100686.03;5074525;27;45429;-54
2021/06/27 05:15:25;;;;;;;;;19.50;19.50;;;;;21.73;63.89;100691.44;5066233;27;45677;-54
2021/06/27 05:17:50;;;;;;;;;19.25;19.25;;;;;21.79;64.05;100694.66;5059394;28;48145;-55
2021/06/27 05:20:16;;;;;;;;;19.50;19.50;;;;;21.81;63.89;100690.03;5071644;28;46081;-53
2021/06/27 05:22:41;;;;;;;;;23.00;20.75;;;;;21.84;63.92;100689.81;5078622;28;45339;-54
2021/06/27 05:25:07;;;;;;;;;22.50;20.75;;;;;21.83;63.53;100680.84;5070820;27;45493;-54
2021/06/27 05:27:33;;;;;;;;;19.00;18.50;;;;;21.87;63.61;100676.97;5057205;27;47265;-55
2021/06/27 05:29:58;;;;;;;;;23.00;21.00;;;;;21.90;63.55;100674.06;5081894;27;45367;-55
2021/06/27 05:32:24;;;;;;;;;23.25;22.75;;;;;21.92;63.79;100674.81;5061107;27;45579;-54
2021/06/27 05:34:49;;;;;;;;;19.50;19.50;;;;;21.92;63.95;100682.91;5061767;28;45523;-54
2021/06/27 05:37:15;;;;;;;;;27.25;24.75;;;;;21.95;63.28;100681.81;5063345;27;45589;-53
2021/06/27 05:39:41;;;;;;;;;23.50;23.50;;;;;21.93;63.89;100686.47;5063602;28;45634;-56
2021/06/27 05:42:06;;;;;;;;;22.25;22.00;;;;;21.92;63.76;100684.75;5071834;28;45335;-55
2021/06/27 05:44:31;;;;;;;;;20.50;20.50;;;;;21.92;63.76;100676.63;5077200;27;45422;-54
2021/06/27 05:46:57;;;;;;;;;19.50;19.50;;;;;21.93;64.12;100684.63;5062842;27;48475;-54
2021/06/27 05:49:23;;;;;;;;;24.00;22.75;;;;;21.98;63.74;100681.63;5059945;27;45722;-55
2021/06/27 05:51:48;;;;;;;;;21.75;20.50;;;;;22.02;63.39;100685.84;5059741;28;45277;-55
2021/06/27 05:54:14;;;;;;;;;20.00;18.25;;;;;22.02;63.48;100681.31;5060065;28;45645;-54
2021/06/27 05:56:39;;;;;;;;;20.50;20.50;;;;;22.03;63.22;100674.94;5059875;28;47065;-54
2021/06/27 05:59:05;;;;;;;;;20.00;20.00;;;;;22.06;63.62;100676.56;5082493;27;46066;-54
2021/06/27 06:01:31;;;;;;;;;18.00;17.75;;;;;22.09;63.71;100672.78;5068064;27;45448;-55
2021/06/27 06:03:56;;;;;;;;;20.75;20.00;;;;;22.14;63.17;100679.63;5070271;28;45393;-56
2021/06/27 06:06:22;;;;;;;;;18.25;17.50;;;;;22.17;63.09;100678.53;5063102;27;46275;-55
2021/06/27 06:08:47;;;;;;;;;18.25;18.25;;;;;22.21;63.21;100682.72;5062019;28;45507;-56
2021/06/27 06:11:15;;;;;;;;;21.00;19.25;;;;;22.23;63.11;100688.88;5065145;28;45455;-55
2021/06/27 06:13:41;;;;;;;;;22.00;19.25;;;;;22.19;62.95;100690.94;5074144;28;45503;-54
2021/06/27 06:16:08;;;;;;;;;22.75;20.00;;;;;22.12;63.44;100692.38;5070239;27;46370;-53
2021/06/27 06:18:35;;;;;;;;;17.50;17.50;;;;;22.11;63.04;100685.25;5062877;28;45475;-53
2021/06/27 06:21:01;;;;;;;;;19.50;18.25;;;;;22.11;63.74;100685.25;5056531;28;45711;-54
2021/06/27 06:23:27;;;;;;;;;18.00;17.00;;;;;22.14;63.57;100689.56;5059575;28;45592;-53
2021/06/27 06:25:53;;;;;;;;;24.25;24.25;;;;;22.15;63.39;100681.34;5066868;28;48582;-54
2021/06/27 06:28:18;;;;;;;;;17.75;17.75;;;;;22.12;63.41;100678.00;5087002;27;45548;-53
2021/06/27 06:30:44;;;;;;;;;21.25;20.00;;;;;22.12;63.43;100688.81;5065448;27;45487;-55
2021/06/27 06:33:11;;;;;;;;;16.50;16.50;;;;;22.15;63.45;100685.88;5084317;27;45403;-55
2021/06/27 06:35:40;;;;;;;;;18.75;17.00;;;;;22.18;63.00;100682.97;5071234;28;47190;-52
2021/06/27 06:38:06;;;;;;;;;20.00;17.50;;;;;22.20;62.99;100689.97;5090155;27;45672;-54
2021/06/27 06:40:32;;;;;;;;;17.00;16.00;;;;;22.22;62.99;100688.03;5066541;27;45565;-54
2021/06/27 06:42:58;;;;;;;;;21.25;21.25;;;;;22.24;62.63;100686.09;5068877;28;45552;-53
2021/06/27 06:45:24;;;;;;;;;17.75;17.75;;;;;22.29;62.96;100685.78;5073616;28;46163;-54
2021/06/27 06:47:50;;;;;;;;;23.50;21.00;;;;;22.32;62.76;100685.53;5083813;27;45677;-55
2021/06/27 06:50:15;;;;;;;;;15.50;15.50;;;;;22.34;62.26;100686.28;5070340;27;45425;-55
2021/06/27 06:52:40;;;;;;;;;19.50;19.50;;;;;22.37;62.03;100686.09;5061414;28;45583;-55
2021/06/27 06:55:06;;;;;;;;;19.00;19.00;;;;;22.41;62.23;100686.75;5060278;28;47861;-54
2021/06/27 06:57:32;;;;;;;;;15.00;14.75;;;;;22.43;62.06;100690.19;5066182;28;45502;-53
2021/06/27 06:59:57;;;;;;;;;18.00;18.00;;;;;22.47;61.77;100700.66;5071254;28;45551;-54
2021/06/27 07:02:23;;;;;;;;;20.25;18.25;;;;;22.52;61.53;100695.81;5059305;28;45332;-57
2021/06/27 07:04:48;;;;;;;;;17.25;15.50;;;;;22.56;61.56;100697.31;5065312;28;46754;-55
2021/06/27 07:07:14;;;;;;;;;16.00;16.00;;;;;22.59;61.86;100697.09;5066022;27;45518;-57
2021/06/27 07:09:40;;;;;;;;;22.00;20.00;;;;;22.67;61.33;100703.78;5065908;27;45371;-56
2021/06/27 07:12:06;;;;;;;;;17.50;16.50;;;;;22.68;61.49;100703.69;5068208;28;45554;-59
2021/06/27 07:14:31;;;;;;;;;18.25;17.25;;;;;22.74;61.11;100694.25;5064061;28;46949;-58
2021/06/27 07:16:57;;;;;;;;;16.00;16.00;;;;;22.80;60.91;100699.22;5066733;28;46233;-58
2021/06/27 07:19:22;;;;;;;;;18.00;17.00;;;;;22.86;60.64;100690.69;5069177;28;45444;-57
2021/06/27 07:21:48;;;;;;;;;20.00;19.25;;;;;22.90;60.53;100693.06;5067870;28;45391;-58
2021/06/27 07:24:13;;;;;;;;;21.00;18.50;;;;;22.94;60.21;100687.41;5065391;27;47202;-58
2021/06/27 07:26:39;;;;;;;;;15.00;15.00;;;;;22.95;60.47;100690.00;5078621;27;45759;-58
2021/06/27 07:29:04;;;;;;;;;18.50;16.75;;;;;23.00;60.19;100697.81;5068805;27;45411;-58
2021/06/27 07:31:30;;;;;;;;;19.25;18.75;;;;;23.05;59.95;100698.31;5064854;28;45661;-59
2021/06/27 07:33:55;;;;;;;;;19.75;17.50;;;;;23.11;59.88;100695.13;5067408;27;47741;-59
2021/06/27 07:36:21;;;;;;;;;18.25;17.25;;;;;23.14;59.80;100689.53;5057676;28;46162;-58
2021/06/27 07:38:46;;;;;;;;;17.50;16.50;;;;;23.15;59.61;100686.69;5062286;27;45451;-58
2021/06/27 07:41:14;;;;;;;;;19.00;19.00;;;;;23.20;59.62;100689.91;5069132;27;45458;-58
2021/06/27 07:43:40;;;;;;;;;15.50;15.50;;;;;23.26;59.42;100693.16;5066523;28;46975;-58
2021/06/27 07:46:06;;;;;;;;;18.25;18.25;;;;;23.32;59.01;100689.97;5069889;27;45437;-58
2021/06/27 07:48:32;;;;;;;;;13.00;11.50;;;;;23.35;59.03;100681.63;5068167;27;45622;-58
2021/06/27 07:50:59;;;;;;;;;18.00;17.25;;;;;23.38;58.94;100674.16;5062106;28;45620;-58
2021/06/27 07:53:25;;;;;;;;;19.00;19.00;;;;;23.40;58.36;100674.03;5070026;28;47325;-57
2021/06/27 07:55:51;;;;;;;;;19.50;17.50;;;;;23.43;58.51;100666.53;5068243;27;45546;-59
2021/06/27 07:58:17;;;;;;;;;20.00;18.50;;;;;23.47;58.35;100676.13;5067455;28;45348;-59
2021/06/27 08:00:43;;;;;;;;;15.50;15.50;;;;;23.52;58.21;100673.09;5069244;27;45401;-58
2021/06/27 08:03:09;;;;;;;;;17.50;17.50;;;;;23.57;58.54;100668.19;5079906;27;47666;-58
2021/06/27 08:05:34;;;;;;;;;16.50;16.50;;;;;23.62;57.94;100668.72;5064486;28;45489;-59
2021/06/27 08:08:00;;;;;;;;;17.50;17.50;;;;;23.66;58.29;100667.50;5068044;28;45466;-58
2021/06/27 08:10:25;;;;;;;;;23.00;19.50;;;;;23.70;58.01;100662.72;5066903;28;45523;-58
2021/06/27 08:12:51;;;;;;;;;18.50;16.50;;;;;23.74;58.00;100662.34;5065648;28;46766;-58
2021/06/27 08:15:19;;;;;;;;;22.00;20.25;;;;;23.78;58.03;100660.28;5063431;28;46103;-57
2021/06/27 08:17:50;;;;;;;;;18.75;17.75;;;;;23.81;57.50;100662.75;5061587;28;45452;-58
2021/06/27 08:20:18;;;;;;;;;21.50;21.00;;;;;23.81;57.44;100654.63;5065161;28;45538;-58
2021/06/27 08:22:44;;;;;;;;;20.75;18.50;;;;;23.83;57.47;100649.94;5094797;27;47576;-57
2021/06/27 08:25:10;;;;;;;;;22.00;19.50;;;;;23.86;57.87;100660.53;5064781;27;45850;-58
2021/06/27 08:27:36;;;;;;;;;21.50;21.50;;;;;23.91;57.70;100661.06;5094805;27;45814;-58
2021/06/27 08:30:04;;;;;;;;;20.00;19.50;;;;;23.94;57.70;100668.06;5068920;27;45431;-58
2021/06/27 08:32:31;;;;;;;;;21.00;20.00;;;;;23.95;57.97;100664.38;5071757;27;47923;-58
2021/06/27 08:34:57;;;;;;;;;20.00;19.00;;;;;23.96;58.08;100663.38;5063300;28;45802;-58
2021/06/27 08:37:23;;;;;;;;;21.00;21.00;;;;;23.99;57.64;100672.13;5072230;27;45563;-58
2021/06/27 08:39:48;;;;;;;;;19.50;19.50;;;;;24.04;57.22;100677.22;5059826;28;45441;-58
2021/06/27 08:42:18;;;;;;;;;23.25;21.50;;;;;24.04;57.56;100679.94;5060602;27;48354;-58
2021/06/27 08:44:44;;;;;;;;;21.25;19.25;;;;;24.06;57.45;100689.66;5068299;28;47038;-58
2021/06/27 08:47:15;;;;;;;;;20.00;18.25;;;;;24.11;57.13;100692.00;5063255;27;45446;-58
2021/06/27 08:49:45;;;;;;;;;21.75;19.75;;;;;24.15;57.50;100693.50;5069005;28;45647;-58
2021/06/27 08:52:16;;;;;;;;;19.75;18.00;;;;;24.18;57.43;100687.84;5066615;27;45720;-58
2021/06/27 08:54:41;;;;;;;;;18.25;18.25;;;;;24.24;57.57;100687.34;5074656;27;45314;-58
2021/06/27 08:57:07;;;;;;;;;22.00;21.75;;;;;24.29;57.38;100685.13;5064238;27;45776;-57
2021/06/27 08:59:33;;;;;;;;;18.50;18.50;;;;;24.32;57.15;100684.91;5069571;27;45594;-59
2021/06/27 09:02:00;;;;;;;;;20.25;19.50;;;;;24.33;57.35;100691.22;5068632;28;48169;-59
2021/06/27 09:04:26;;;;;;;;;17.00;17.00;;;;;24.33;56.91;100685.78;5067247;27;45549;-59
2021/06/27 09:06:51;;;;;;;;;20.50;17.75;;;;;24.32;56.92;100690.34;5069485;28;45574;-59
2021/06/27 09:09:19;;;;;;;;;19.00;19.00;;;;;24.33;56.87;100692.06;5066055;27;45342;-58
2021/06/27 09:12:00;;;;;;;;;18.75;17.75;;;;;24.31;57.12;100691.34;5074503;28;48227;-58
2021/06/27 09:14:30;;;;;;;;;17.50;17.00;;;;;24.29;57.06;100698.69;5067606;28;45496;-60
2021/06/27 09:17:18;;;;;;;;;19.00;18.00;;;;;24.28;57.10;100699.69;5080948;27;45507;-57
2021/06/27 09:19:54;;;;;;;;;18.75;17.75;;;;;24.25;56.96;100697.19;5066348;27;45994;-57
2021/06/27 09:22:22;;;;;;;;;17.25;16.50;;;;;24.22;56.90;100700.16;5086118;27;48006;-57
2021/06/27 09:24:48;;;;;;;;;17.75;17.75;;;;;24.23;57.63;100703.72;5061977;28;45821;-59
2021/06/27 09:27:14;;;;;;;;;23.00;20.25;;;;;24.23;57.50;100699.16;5065036;28;45489;-52
2021/06/27 09:29:40;;;;;;;;;20.25;20.00;;;;;24.23;57.38;100699.16;5075102;27;45746;-54
2021/06/27 09:32:15;;;;;;;;;21.00;20.25;;;;;24.23;57.52;100704.59;5065992;28;46215;-53
2021/06/27 09:34:44;;;;;;;;;20.75;20.75;;;;;24.21;57.77;100700.28;5074254;28;45317;-54
2021/06/27 09:37:13;;;;;;;;;19.50;18.50;;;;;24.19;57.73;100713.09;5075196;28;45357;-55
2021/06/27 09:40:01;;;;;;;;;21.00;20.00;;;;;24.18;57.86;100708.66;5078928;27;45440;-54
2021/06/27 09:42:29;;;;;;;;;22.25;20.25;;;;;24.18;58.05;100709.53;5086018;27;46273;-53
2021/06/27 09:45:06;;;;;;;;;22.75;21.25;;;;;24.20;58.10;100712.13;5064201;28;45377;-53
2021/06/27 09:47:32;;;;;;;;;25.00;25.00;;;;;24.21;58.28;100717.41;5074695;27;45951;-53
2021/06/27 09:49:58;;;;;;;;;21.50;21.50;;;;;24.22;58.22;100711.00;5064674;28;45668;-53
2021/06/27 09:52:37;;;;;;;;;24.25;24.25;;;;;24.21;58.45;100722.84;5063165;27;47446;-51
2021/06/27 09:55:11;;;;;;;;;21.75;20.25;;;;;24.20;58.27;100721.13;5074498;28;45457;-54
2021/06/27 09:57:37;;;;;;;;;21.50;21.50;;;;;24.16;58.35;100725.06;5067268;28;45453;-54
2021/06/27 10:00:23;;;;;;;;;23.75;22.50;;;;;24.13;58.31;100727.13;5066934;27;45679;-54
2021/06/27 10:03:00;;;;;;;;;26.25;25.75;;;;;24.11;58.49;100729.97;5059453;28;47914;-54
2021/06/27 10:05:26;;;;;;;;;26.25;25.00;;;;;24.07;58.10;100731.19;5061534;28;45333;-53
2021/06/27 10:07:52;;;;;;;;;26.00;24.75;;;;;24.03;58.70;100736.00;5065963;27;45276;-53
2021/06/27 10:10:19;;;;;;;;;25.25;23.50;;;;;24.02;59.11;100736.97;5063484;28;45645;-54
2021/06/27 10:12:45;;;;;;;;;22.75;21.75;;;;;24.03;59.05;100743.25;5066686;27;48217;-50
2021/06/27 10:15:14;;;;;;;;;22.25;22.25;;;;;24.05;58.88;100741.28;5076029;27;46170;-54
2021/06/27 10:17:40;;;;;;;;;22.25;22.25;;;;;24.07;59.07;100748.31;5086272;27;45419;-57
2021/06/27 10:20:06;;;;;;;;;24.00;24.00;;;;;24.11;58.86;100753.50;5069403;28;45560;-57
2021/06/27 10:22:32;;;;;;;;;25.00;24.25;;;;;24.11;58.50;100748.06;5067538;28;47425;-57
2021/06/27 10:24:57;;;;;;;;;23.25;22.50;;;;;24.12;58.62;100745.25;5081060;27;45986;-58
2021/06/27 10:27:27;;;;;;;;;26.50;24.25;;;;;24.17;58.83;100747.63;5084281;27;45495;-57
2021/06/27 10:29:53;;;;;;;;;23.00;23.00;;;;;24.21;58.58;100751.81;5075662;27;45737;-58
2021/06/27 10:32:20;;;;;;;;;25.25;24.50;;;;;24.26;58.79;100752.28;5064732;27;47341;-57
2021/06/27 10:34:47;;;;;;;;;32.50;30.25;;;;;24.28;58.92;100753.94;5068289;28;45592;-56
2021/06/27 10:37:16;;;;;;;;;29.25;28.50;;;;;24.31;58.46;100750.13;5059617;28;45964;-49
2021/06/27 10:40:00;;;;;;;;;24.00;24.00;;;;;24.37;58.78;100763.19;5087775;27;45635;-53
2021/06/27 10:42:47;;;;;;;;;25.75;25.50;;;;;24.46;58.62;100754.34;5062631;27;48205;-50
2021/06/27 10:45:13;;;;;;;;;21.75;21.50;;;;;24.54;58.48;100756.47;5064856;28;46173;-52
2021/06/27 10:47:39;;;;;;;;;31.50;29.25;;;;;24.62;58.58;100759.41;5064918;27;46206;-51
2021/06/27 10:50:08;;;;;;;;;24.75;22.25;;;;;24.70;58.69;100761.53;5072139;28;45597;-52
2021/06/27 10:52:56;;;;;;;;;26.25;26.00;;;;;24.78;58.50;100754.50;5061793;28;47836;-54
2021/06/27 10:55:28;;;;;;;;;28.00;25.50;;;;;24.85;58.77;100765.72;5065280;28;46936;-54
2021/06/27 10:58:02;;;;;;;;;29.00;25.25;;;;;24.88;58.35;100757.31;5089498;27;45539;-53
2021/06/27 11:00:52;;;;;;;;;30.75;28.25;;;;;24.87;58.38;100763.75;5066582;28;45572;-53
2021/06/27 11:03:26;;;;;;;;;31.75;29.75;;;;;24.81;58.83;100765.13;5069693;28;48423;-57
2021/06/27 11:05:57;;;;;;;;;30.25;28.50;;;;;24.73;58.68;100759.44;5060804;28;45713;-54
2021/06/27 11:08:30;;;;;;;;;26.75;26.50;;;;;24.68;58.53;100758.06;5062848;28;45416;-54